createdAt,value
2023-01-21T00:01:09.703Z,36.38
2023-01-21T00:03:36.300Z,38.08
2023-01-21T00:06:04.251Z,39.30
2023-01-21T00:08:30.687Z,43.88
2023-01-21T00:10:57.110Z,41.15
2023-01-21T00:13:23.671Z,38.63
2023-01-21T00:15:50.349Z,39.20
2023-01-21T00:18:16.826Z,39.78
2023-01-21T00:20:48.633Z,40.90
2023-01-21T00:23:15.093Z,38.50
2023-01-21T00:25:42.013Z,41.58
2023-01-21T00:28:08.495Z,40.65
2023-01-21T00:30:36.856Z,43.22
2023-01-21T00:33:07.735Z,48.90
2023-01-21T00:35:34.267Z,49.20
2023-01-21T00:38:00.686Z,45.33
2023-01-21T00:40:27.249Z,41.90
2023-01-21T00:42:53.691Z,42.65
2023-01-21T00:45:20.218Z,38.97
2023-01-21T00:47:58.195Z,48.00
2023-01-21T00:50:24.666Z,39.88
2023-01-21T00:52:51.098Z,39.00
2023-01-21T00:55:17.593Z,44.05
2023-01-21T00:57:44.030Z,45.60
2023-01-21T01:00:13.050Z,39.58
2023-01-21T01:02:39.539Z,44.78
2023-01-21T01:05:08.328Z,41.60
2023-01-21T01:07:35.221Z,47.45
2023-01-21T01:10:01.642Z,42.38
2023-01-21T01:12:28.814Z,50.20
2023-01-21T01:15:05.407Z,50.30
2023-01-21T01:17:31.977Z,50.58
2023-01-21T01:19:58.453Z,48.53
2023-01-21T01:22:24.988Z,52.47
2023-01-21T01:24:51.431Z,54.30
2023-01-21T01:27:17.859Z,52.40
2023-01-21T01:29:44.306Z,51.13
2023-01-21T01:32:10.782Z,49.40
2023-01-21T01:34:37.193Z,47.88
2023-01-21T01:37:04.203Z,52.60
2023-01-21T01:39:31.447Z,54.05
2023-01-21T01:42:04.488Z,48.72
2023-01-21T01:44:55.869Z,53.70
2023-01-21T01:47:27.820Z,50.42
2023-01-21T01:49:55.247Z,51.20
2023-01-21T01:52:22.908Z,51.50
2023-01-21T01:54:54.719Z,53.70
2023-01-21T01:57:29.584Z,52.22
2023-01-21T01:59:57.064Z,55.30
2023-01-21T02:02:23.510Z,53.85
2023-01-21T02:05:00.291Z,52.40
2023-01-21T02:07:29.180Z,50.38
2023-01-21T02:09:56.441Z,46.55
2023-01-21T02:12:23.243Z,45.45
2023-01-21T02:14:50.573Z,46.22
2023-01-21T02:18:00.180Z,50.67
2023-01-21T02:20:48.198Z,46.38
2023-01-21T02:23:40.178Z,46.63
2023-01-21T02:26:12.554Z,44.63
2023-01-21T02:29:10.775Z,41.40
2023-01-21T02:32:08.696Z,43.15
2023-01-21T02:35:02.865Z,42.97
2023-01-21T02:37:40.825Z,47.42
2023-01-21T02:40:13.518Z,44.47
2023-01-21T02:43:08.488Z,44.10
2023-01-21T02:45:53.410Z,40.20
2023-01-21T02:48:47.731Z,41.78
2023-01-21T02:51:21.946Z,46.53
2023-01-21T02:53:48.437Z,41.83
2023-01-21T02:56:21.861Z,41.60
2023-01-21T02:58:54.950Z,43.03
2023-01-21T03:01:55.652Z,50.58
2023-01-21T03:04:33.273Z,40.53
2023-01-21T03:07:13.027Z,46.13
2023-01-21T03:09:40.168Z,41.42
2023-01-21T03:12:25.595Z,38.13
2023-01-21T03:15:27.908Z,38.90
2023-01-21T03:18:31.284Z,38.60
2023-01-21T03:21:07.274Z,36.77
2023-01-21T03:23:39.015Z,37.40
2023-01-21T03:26:07.675Z,39.33
2023-01-21T03:28:39.717Z,36.13
2023-01-21T03:31:11.695Z,35.08
2023-01-21T03:33:42.371Z,33.83
2023-01-21T03:36:22.324Z,36.13
2023-01-21T03:38:52.562Z,34.17
2023-01-21T03:41:27.252Z,31.35
2023-01-21T03:43:53.794Z,30.77
2023-01-21T03:46:50.001Z,33.25
2023-01-21T03:49:29.857Z,33.53
2023-01-21T03:51:59.903Z,29.33
2023-01-21T03:54:33.094Z,30.25
2023-01-21T03:56:59.542Z,33.35
2023-01-21T03:59:25.971Z,32.67
2023-01-21T04:01:52.421Z,31.58
2023-01-21T04:04:19.050Z,31.85
2023-01-21T04:06:45.460Z,26.20
2023-01-21T04:09:12.011Z,30.98
2023-01-21T04:11:38.411Z,28.08
2023-01-21T04:14:04.946Z,32.10
2023-01-21T04:16:31.477Z,31.85
2023-01-21T04:18:57.915Z,30.63
2023-01-21T04:21:37.004Z,32.63
2023-01-21T04:24:03.758Z,33.63
2023-01-21T04:26:30.192Z,31.50
2023-01-21T04:28:56.629Z,30.25
2023-01-21T04:31:23.078Z,34.65
2023-01-21T04:33:49.526Z,31.63
2023-01-21T04:36:15.935Z,30.50
2023-01-21T04:38:42.374Z,31.88
2023-01-21T04:41:08.838Z,31.55
2023-01-21T04:43:35.271Z,30.40
2023-01-21T04:46:02.465Z,33.42
2023-01-21T04:48:38.328Z,31.73
2023-01-21T04:51:06.542Z,29.33
2023-01-21T04:53:33.063Z,29.80
2023-01-21T04:55:59.548Z,35.25
2023-01-21T04:58:27.413Z,31.23
2023-01-21T05:00:55.387Z,31.42
2023-01-21T05:03:21.872Z,30.35
2023-01-21T05:05:48.480Z,31.00
2023-01-21T05:08:14.981Z,28.73
2023-01-21T05:10:41.383Z,29.38
2023-01-21T05:13:07.804Z,28.33
2023-01-21T05:15:40.685Z,28.58
2023-01-21T05:18:07.205Z,29.15
2023-01-21T05:20:33.593Z,32.90
2023-01-21T05:23:00.053Z,36.00
2023-01-21T05:25:26.513Z,30.88
2023-01-21T05:27:54.303Z,27.48
2023-01-21T05:30:21.246Z,31.30
2023-01-21T05:32:51.934Z,33.63
2023-01-21T05:35:20.195Z,34.13
2023-01-21T05:37:47.913Z,33.50
2023-01-21T05:40:16.420Z,34.88
2023-01-21T05:42:45.668Z,30.95
2023-01-21T05:45:12.414Z,34.53
2023-01-21T05:47:39.011Z,34.40
2023-01-21T05:50:06.375Z,37.45
2023-01-21T05:52:32.854Z,34.60
2023-01-21T05:55:02.114Z,35.30
2023-01-21T05:57:30.050Z,33.65
2023-01-21T05:59:56.591Z,30.90
2023-01-21T06:02:23.371Z,31.42
2023-01-21T06:04:49.989Z,31.52
2023-01-21T06:07:16.481Z,34.03
2023-01-21T06:09:43.778Z,32.63
2023-01-21T06:12:10.357Z,35.78
2023-01-21T06:14:36.902Z,34.22
2023-01-21T06:17:04.146Z,31.58
2023-01-21T06:19:30.565Z,31.30
2023-01-21T06:21:57.776Z,36.47
2023-01-21T06:24:24.217Z,30.88
2023-01-21T06:26:50.684Z,36.90
2023-01-21T06:29:17.171Z,41.85
2023-01-21T06:31:43.860Z,39.55
2023-01-21T06:34:12.681Z,37.10
2023-01-21T06:36:42.581Z,29.67
2023-01-21T06:39:10.621Z,33.92
2023-01-21T06:41:37.072Z,39.60
2023-01-21T06:44:04.577Z,31.73
2023-01-21T06:46:31.067Z,30.63
2023-01-21T06:48:59.288Z,35.80
2023-01-21T06:51:26.023Z,39.60
2023-01-21T06:53:52.733Z,39.53
2023-01-21T06:56:19.422Z,35.30
2023-01-21T06:58:46.113Z,37.20
2023-01-21T07:01:13.148Z,36.63
2023-01-21T07:03:39.736Z,36.22
2023-01-21T07:06:06.588Z,31.52
2023-01-21T07:08:33.009Z,39.92
2023-01-21T07:10:59.511Z,33.35
2023-01-21T07:13:29.478Z,39.22
2023-01-21T07:16:04.031Z,33.50
2023-01-21T07:18:31.737Z,41.35
2023-01-21T07:20:58.232Z,32.60
2023-01-21T07:23:25.147Z,30.60
2023-01-21T07:25:51.683Z,34.65
2023-01-21T07:28:18.339Z,31.70
2023-01-21T07:30:45.379Z,34.15
2023-01-21T07:33:11.859Z,32.83
2023-01-21T07:35:38.318Z,33.42
2023-01-21T07:38:04.910Z,34.20
2023-01-21T07:40:31.502Z,37.70
2023-01-21T07:42:57.985Z,34.30
2023-01-21T07:45:24.766Z,34.58
2023-01-21T07:47:51.267Z,32.65
2023-01-21T07:50:17.722Z,45.67
2023-01-21T07:52:44.152Z,37.35
2023-01-21T07:55:12.774Z,35.88
2023-01-21T07:57:39.540Z,36.67
2023-01-21T08:00:07.044Z,37.40
2023-01-21T08:02:33.716Z,37.15
2023-01-21T08:05:00.195Z,33.22
2023-01-21T08:07:26.629Z,37.42
2023-01-21T08:09:53.112Z,44.35
2023-01-21T08:12:19.565Z,36.58
2023-01-21T08:14:45.960Z,39.67
2023-01-21T08:17:12.431Z,38.90
2023-01-21T08:19:38.837Z,39.55
2023-01-21T08:22:05.664Z,33.03
2023-01-21T08:24:32.202Z,31.38
2023-01-21T08:27:00.041Z,35.42
2023-01-21T08:29:27.389Z,34.17
2023-01-21T08:31:54.019Z,34.33
2023-01-21T08:34:23.867Z,32.20
2023-01-21T08:36:50.400Z,37.35
2023-01-21T08:39:16.840Z,32.55
2023-01-21T08:41:44.273Z,31.88
2023-01-21T08:44:10.691Z,36.85
2023-01-21T08:46:37.163Z,33.22
2023-01-21T08:49:03.855Z,37.13
2023-01-21T08:51:30.268Z,30.77
2023-01-21T08:53:56.737Z,32.25
2023-01-21T08:56:23.290Z,31.75
2023-01-21T08:58:55.214Z,33.72
2023-01-21T09:01:21.899Z,34.20
2023-01-21T09:03:48.495Z,33.42
2023-01-21T09:06:15.397Z,31.90
2023-01-21T09:08:42.166Z,32.47
2023-01-21T09:11:10.092Z,36.15
2023-01-21T09:13:38.645Z,33.58
2023-01-21T09:16:14.340Z,28.70
2023-01-21T09:18:41.490Z,31.13
2023-01-21T09:21:08.234Z,33.83
2023-01-21T09:23:36.397Z,32.90
2023-01-21T09:26:20.789Z,36.38
2023-01-21T09:28:53.069Z,32.92
2023-01-21T09:31:26.948Z,37.58
2023-01-21T09:33:56.905Z,40.03
2023-01-21T09:36:26.179Z,31.05
2023-01-21T09:38:52.723Z,30.80
2023-01-21T09:41:30.344Z,30.98
2023-01-21T09:44:14.857Z,29.98
2023-01-21T09:47:04.882Z,37.38
2023-01-21T09:49:34.666Z,31.33
2023-01-21T09:52:39.314Z,28.10
2023-01-21T09:55:13.979Z,32.63
2023-01-21T09:58:08.319Z,28.70
2023-01-21T10:00:55.090Z,30.98
2023-01-21T10:03:38.451Z,31.02
2023-01-21T10:06:26.946Z,29.92
2023-01-21T10:09:32.353Z,31.50
2023-01-21T10:12:28.191Z,26.27
2023-01-21T10:15:33.231Z,27.48
2023-01-21T10:18:07.377Z,24.23
2023-01-21T10:20:45.756Z,25.05
2023-01-21T10:23:22.532Z,24.80
2023-01-21T10:25:50.386Z,23.13
2023-01-21T10:28:22.791Z,24.40
2023-01-21T10:30:55.017Z,35.65
2023-01-21T10:33:26.599Z,28.20
2023-01-21T10:36:02.059Z,27.83
2023-01-21T10:38:41.375Z,24.45
2023-01-21T10:41:37.535Z,28.63
2023-01-21T10:44:30.025Z,28.67
2023-01-21T10:47:18.632Z,27.80
2023-01-21T10:50:14.637Z,25.80
2023-01-21T10:52:51.637Z,26.58
2023-01-21T10:55:41.190Z,26.58
2023-01-21T10:58:30.532Z,25.08
2023-01-21T11:01:02.099Z,25.40
2023-01-21T11:03:41.224Z,38.80
2023-01-21T11:06:12.139Z,30.83
2023-01-21T11:08:39.758Z,24.45
2023-01-21T11:11:08.493Z,24.23
2023-01-21T11:13:36.410Z,23.67
2023-01-21T11:16:04.448Z,22.45
2023-01-21T11:18:33.141Z,22.00
2023-01-21T11:21:03.571Z,23.70
2023-01-21T11:23:35.222Z,25.63
2023-01-21T11:26:19.143Z,23.15
2023-01-21T11:31:14.263Z,21.30
2023-01-21T11:33:43.027Z,22.02
2023-01-21T11:36:14.419Z,21.50
2023-01-21T11:38:42.333Z,20.80
2023-01-21T11:41:11.792Z,21.15
2023-01-21T11:43:49.922Z,21.48
2023-01-21T11:46:26.847Z,21.15
2023-01-21T11:49:08.423Z,18.75
2023-01-21T11:51:36.132Z,19.10
2023-01-21T11:54:13.278Z,20.88
2023-01-21T11:56:43.282Z,24.50
2023-01-21T11:59:21.674Z,22.63
2023-01-21T12:02:19.557Z,19.88
2023-01-21T12:05:12.552Z,19.90
2023-01-21T12:07:41.869Z,18.40
2023-01-21T12:10:30.514Z,24.10
2023-01-21T12:13:14.896Z,24.48
2023-01-21T12:15:53.259Z,24.50
2023-01-21T12:19:03.134Z,23.48
2023-01-21T12:21:42.703Z,20.75
2023-01-21T12:24:39.873Z,22.90
2023-01-21T12:27:28.573Z,25.92
2023-01-21T12:30:15.143Z,21.15
2023-01-21T12:32:56.716Z,20.90
2023-01-21T12:35:47.654Z,25.35
2023-01-21T12:38:21.229Z,18.38
2023-01-21T12:43:34.590Z,18.80
2023-01-21T12:46:10.812Z,20.35
2023-01-21T12:48:48.896Z,17.85
2023-01-21T12:53:50.932Z,17.98
2023-01-21T12:59:14.244Z,17.10
2023-01-21T13:02:08.768Z,18.00
2023-01-21T13:04:53.512Z,15.55
2023-01-21T13:07:30.076Z,16.90
2023-01-21T13:10:19.598Z,13.68
2023-01-21T13:13:03.174Z,18.27
2023-01-21T13:15:36.598Z,16.02
2023-01-21T13:18:13.008Z,14.95
2023-01-21T13:20:47.662Z,16.65
2023-01-21T13:23:26.914Z,16.38
2023-01-21T13:26:23.001Z,15.55
2023-01-21T13:29:14.190Z,17.92
2023-01-21T13:31:48.453Z,20.42
2023-01-21T13:34:52.648Z,18.00
2023-01-21T13:37:29.718Z,18.13
2023-01-21T13:40:39.440Z,16.83
2023-01-21T13:43:54.885Z,16.75
2023-01-21T13:46:39.642Z,16.17
2023-01-21T13:49:19.986Z,16.05
2023-01-21T13:51:59.356Z,18.52
2023-01-21T13:55:00.351Z,14.93
2023-01-21T13:57:38.793Z,16.73
2023-01-21T14:00:34.662Z,15.32
2023-01-21T14:03:01.221Z,12.27
2023-01-21T14:05:39.855Z,13.20
2023-01-21T14:08:32.212Z,17.15
2023-01-21T14:11:12.527Z,20.70
2023-01-21T14:14:19.454Z,19.95
2023-01-21T14:17:19.423Z,15.25
2023-01-21T14:20:05.438Z,16.63
2023-01-21T14:22:42.124Z,14.70
2023-01-21T14:28:21.937Z,18.42
2023-01-21T14:31:02.442Z,16.70
2023-01-21T14:33:48.328Z,16.08
2023-01-21T14:36:23.952Z,16.00
2023-01-21T14:39:04.239Z,20.63
2023-01-21T14:42:04.825Z,16.65
2023-01-21T14:44:40.416Z,15.32
2023-01-21T14:47:14.777Z,17.35
2023-01-21T14:49:48.303Z,16.75
2023-01-21T14:52:19.057Z,19.70
2023-01-21T14:54:46.837Z,18.10
2023-01-21T14:57:49.682Z,19.83
2023-01-21T15:00:18.806Z,19.30
2023-01-21T15:02:47.986Z,17.45
2023-01-21T15:05:27.869Z,14.68
2023-01-21T15:08:06.363Z,19.35
2023-01-21T15:10:40.378Z,17.33
2023-01-21T15:13:26.785Z,24.77
2023-01-21T15:16:31.196Z,33.15
2023-01-21T15:21:42.400Z,54.13
2023-01-21T15:24:37.312Z,35.25
2023-01-21T15:27:20.019Z,24.88
2023-01-21T15:30:19.029Z,25.75
2023-01-21T15:32:49.234Z,42.92
2023-01-21T15:35:32.401Z,23.30
2023-01-21T15:38:03.692Z,22.55
2023-01-21T15:40:41.268Z,20.73
2023-01-21T15:43:20.555Z,17.58
2023-01-21T15:46:27.043Z,19.17
2023-01-21T15:49:20.939Z,15.57
2023-01-21T15:52:08.986Z,17.75
2023-01-21T15:54:50.268Z,15.98
2023-01-21T15:57:29.642Z,19.52
2023-01-21T16:00:10.829Z,16.52
2023-01-21T16:02:58.056Z,18.08
2023-01-21T16:05:36.553Z,16.33
2023-01-21T16:08:17.021Z,19.13
2023-01-21T16:11:06.927Z,15.85
2023-01-21T16:13:33.914Z,30.75
2023-01-21T16:16:34.377Z,19.98
2023-01-21T16:19:12.196Z,17.10
2023-01-21T16:21:42.850Z,16.05
2023-01-21T16:24:17.265Z,21.15
2023-01-21T16:26:44.227Z,24.90
2023-01-21T16:29:15.529Z,19.27
2023-01-21T16:32:00.108Z,21.92
2023-01-21T16:34:41.309Z,19.42
2023-01-21T16:37:14.094Z,25.38
2023-01-21T16:39:43.014Z,20.65
2023-01-21T16:42:38.247Z,20.52
2023-01-21T16:45:27.374Z,22.20
2023-01-21T16:47:59.442Z,20.83
2023-01-21T16:50:28.783Z,19.92
2023-01-21T16:52:57.439Z,22.38
2023-01-21T16:55:26.738Z,20.02
2023-01-21T16:57:56.015Z,20.63
2023-01-21T17:00:25.974Z,20.85
2023-01-21T17:02:52.856Z,22.40
2023-01-21T17:05:20.273Z,22.88
2023-01-21T17:07:56.000Z,23.38
2023-01-21T17:10:27.648Z,22.02
2023-01-21T17:12:59.515Z,22.05
2023-01-21T17:15:38.532Z,22.20
2023-01-21T17:18:09.043Z,31.70
2023-01-21T17:20:42.292Z,22.65
2023-01-21T17:23:19.862Z,23.48
2023-01-21T17:25:53.919Z,24.90
2023-01-21T17:28:31.523Z,24.77
2023-01-21T17:31:17.462Z,20.98
2023-01-21T17:33:44.584Z,22.10
2023-01-21T17:36:16.121Z,21.10
2023-01-21T17:38:45.332Z,23.08
2023-01-21T17:41:26.166Z,24.60
2023-01-21T17:43:58.492Z,28.05
2023-01-21T17:46:25.236Z,38.72
2023-01-21T17:48:55.948Z,24.60
2023-01-21T17:51:26.292Z,26.27
2023-01-21T17:54:00.036Z,23.30
2023-01-21T17:56:51.145Z,26.45
2023-01-21T17:59:42.879Z,23.75
2023-01-21T18:02:11.942Z,18.35
2023-01-21T18:04:39.408Z,39.13
2023-01-21T18:07:21.115Z,21.45
2023-01-21T18:09:47.527Z,24.05
2023-01-21T18:12:14.202Z,22.30
2023-01-21T18:14:41.810Z,23.30
2023-01-21T18:17:18.766Z,26.50
2023-01-21T18:19:45.568Z,22.80
2023-01-21T18:22:30.499Z,23.52
2023-01-21T18:24:56.936Z,23.30
2023-01-21T18:27:25.996Z,23.80
2023-01-21T18:29:53.401Z,24.25
2023-01-21T18:32:19.940Z,21.98
2023-01-21T18:34:46.879Z,21.35
2023-01-21T18:37:14.882Z,20.85
2023-01-21T18:39:41.600Z,20.48
2023-01-21T18:42:16.267Z,22.00
2023-01-21T18:44:43.150Z,22.33
2023-01-21T18:47:12.378Z,24.10
2023-01-21T18:49:38.823Z,24.80
2023-01-21T18:52:06.134Z,23.33
2023-01-21T18:54:33.089Z,22.45
2023-01-21T18:57:01.001Z,22.48
2023-01-21T18:59:27.850Z,22.80
2023-01-21T19:01:54.580Z,23.27
2023-01-21T19:04:21.538Z,24.00
2023-01-21T19:06:50.481Z,18.90
2023-01-21T19:09:22.896Z,19.95
2023-01-21T19:11:49.941Z,25.55
2023-01-21T19:14:16.451Z,21.63
2023-01-21T19:16:44.333Z,19.15
2023-01-21T19:19:16.223Z,24.60
2023-01-21T19:21:43.054Z,29.02
2023-01-21T19:24:11.916Z,21.40
2023-01-21T19:26:38.963Z,28.02
2023-01-21T19:29:07.678Z,18.23
2023-01-21T19:31:34.185Z,17.17
2023-01-21T19:34:00.727Z,16.35
2023-01-21T19:36:27.206Z,19.92
2023-01-21T19:38:56.919Z,19.73
2023-01-21T19:41:23.848Z,19.55
2023-01-21T19:43:50.515Z,19.08
2023-01-21T19:46:18.346Z,18.98
2023-01-21T19:48:45.173Z,20.65
2023-01-21T19:51:11.729Z,16.65
2023-01-21T19:53:38.175Z,17.75
2023-01-21T19:56:05.126Z,19.52
2023-01-21T19:58:32.433Z,19.10
2023-01-21T20:00:58.894Z,17.05
2023-01-21T20:03:26.103Z,19.05
2023-01-21T20:05:57.334Z,15.27
2023-01-21T20:08:27.397Z,14.63
2023-01-21T20:10:53.870Z,15.60
2023-01-21T20:13:20.373Z,19.17
2023-01-21T20:15:49.174Z,15.85
2023-01-21T20:18:25.322Z,18.83
2023-01-21T20:20:52.961Z,16.13
2023-01-21T20:23:21.050Z,20.83
2023-01-21T20:25:56.664Z,19.77
2023-01-21T20:28:33.739Z,13.85
2023-01-21T20:31:03.410Z,15.73
2023-01-21T20:33:29.957Z,16.63
2023-01-21T20:35:57.582Z,13.88
2023-01-21T20:38:30.811Z,12.32
2023-01-21T20:40:58.524Z,15.05
2023-01-21T20:43:25.019Z,15.93
2023-01-21T20:45:52.141Z,12.05
2023-01-21T20:48:25.338Z,15.23
2023-01-21T20:50:52.131Z,14.68
2023-01-21T20:53:19.031Z,11.98
2023-01-21T20:55:48.330Z,12.05
2023-01-21T20:58:16.656Z,14.88
2023-01-21T21:00:45.359Z,13.63
2023-01-21T21:03:13.973Z,11.38
2023-01-21T21:05:40.641Z,12.70
2023-01-21T21:08:10.166Z,10.65
2023-01-21T21:10:36.580Z,11.35
2023-01-21T21:13:04.010Z,11.48
2023-01-21T21:15:33.544Z,9.88
2023-01-21T21:18:00.685Z,10.05
2023-01-21T21:20:33.110Z,10.35
2023-01-21T21:22:59.916Z,11.85
2023-01-21T21:25:28.507Z,8.52
2023-01-21T21:27:55.819Z,11.27
2023-01-21T21:30:26.256Z,8.48
2023-01-21T21:32:53.318Z,7.68
2023-01-21T21:35:28.046Z,12.60
2023-01-21T21:37:56.705Z,8.32
2023-01-21T21:40:25.464Z,7.32
2023-01-21T21:43:11.074Z,7.28
2023-01-21T21:45:41.184Z,6.10
2023-01-21T21:48:39.212Z,6.45
2023-01-21T21:51:07.167Z,9.48
2023-01-21T21:53:33.782Z,6.50
2023-01-21T21:56:02.838Z,6.65
2023-01-21T21:58:29.318Z,7.25
2023-01-21T22:00:55.915Z,6.97
2023-01-21T22:03:22.414Z,13.38
2023-01-21T22:05:53.739Z,6.97
2023-01-21T22:08:20.206Z,5.85
2023-01-21T22:10:55.956Z,7.78
2023-01-21T22:13:22.373Z,9.40
2023-01-21T22:16:00.647Z,5.95
2023-01-21T22:18:29.348Z,4.35
2023-01-21T22:21:06.841Z,4.97
2023-01-21T22:23:35.414Z,7.68
2023-01-21T22:26:02.744Z,6.22
2023-01-21T22:28:29.432Z,5.25
2023-01-21T22:31:02.426Z,5.97
2023-01-21T22:33:28.963Z,6.18
2023-01-21T22:35:55.379Z,4.28
2023-01-21T22:38:21.885Z,8.32
2023-01-21T22:40:55.164Z,4.90
2023-01-21T22:43:21.995Z,3.25
2023-01-21T22:45:50.167Z,3.40
2023-01-21T22:48:18.450Z,5.18
2023-01-21T22:50:51.115Z,3.88
2023-01-21T22:53:17.722Z,4.07
2023-01-21T22:55:44.109Z,4.13
2023-01-21T22:58:10.563Z,3.05
2023-01-21T23:00:39.652Z,4.57
2023-01-21T23:03:07.822Z,4.30
2023-01-21T23:05:35.359Z,4.63
2023-01-21T23:08:02.040Z,3.95
2023-01-21T23:10:28.505Z,4.18
2023-01-21T23:12:55.015Z,3.53
2023-01-21T23:15:22.634Z,4.13
2023-01-21T23:17:49.656Z,4.05
2023-01-21T23:20:16.872Z,3.40
2023-01-21T23:22:43.549Z,3.92
2023-01-21T23:25:12.740Z,4.25
2023-01-21T23:27:39.356Z,4.88
2023-01-21T23:30:07.171Z,5.60
2023-01-21T23:32:33.769Z,5.10
2023-01-21T23:35:00.188Z,4.78
2023-01-21T23:37:26.652Z,6.60
2023-01-21T23:39:53.141Z,2.25
2023-01-21T23:42:19.726Z,3.35
2023-01-21T23:44:46.224Z,2.85
2023-01-21T23:47:12.688Z,3.10
2023-01-21T23:49:39.212Z,3.20
2023-01-21T23:52:08.228Z,3.65
2023-01-21T23:54:34.662Z,4.50
2023-01-21T23:57:01.066Z,2.55
2023-01-21T23:59:27.627Z,3.42
